sensor_id;sensor_type;location;lat;lon;timestamp;P1;durP1;ratioP1;P2;durP2;ratioP2
72209;SDS011;60113;48.762;12.302;2024-03-08T00:00:26;103.85;;;56.53;;
72209;SDS011;60113;48.762;12.302;2024-03-08T00:02:52;121.82;;;63.10;;
72209;SDS011;60113;48.762;12.302;2024-03-08T00:05:19;137.57;;;66.22;;
72209;SDS011;60113;48.762;12.302;2024-03-08T00:07:44;134.15;;;67.88;;
72209;SDS011;60113;48.762;12.302;2024-03-08T00:10:11;148.73;;;70.50;;
72209;SDS011;60113;48.762;12.302;2024-03-08T00:12:40;152.98;;;72.35;;
72209;SDS011;60113;48.762;12.302;2024-03-08T00:15:08;151.00;;;72.72;;
72209;SDS011;60113;48.762;12.302;2024-03-08T00:17:34;159.77;;;77.97;;
72209;SDS011;60113;48.762;12.302;2024-03-08T00:20:00;154.43;;;77.85;;
72209;SDS011;60113;48.762;12.302;2024-03-08T00:22:25;171.30;;;81.80;;
72209;SDS011;60113;48.762;12.302;2024-03-08T00:24:51;172.13;;;82.47;;
72209;SDS011;60113;48.762;12.302;2024-03-08T00:27:16;166.30;;;80.75;;
72209;SDS011;60113;48.762;12.302;2024-03-08T00:29:41;164.70;;;80.88;;
72209;SDS011;60113;48.762;12.302;2024-03-08T00:32:07;171.35;;;82.00;;
72209;SDS011;60113;48.762;12.302;2024-03-08T00:34:36;186.82;;;86.47;;
72209;SDS011;60113;48.762;12.302;2024-03-08T00:37:04;165.25;;;80.43;;
72209;SDS011;60113;48.762;12.302;2024-03-08T00:39:30;179.40;;;84.07;;
72209;SDS011;60113;48.762;12.302;2024-03-08T00:41:56;168.65;;;80.35;;
72209;SDS011;60113;48.762;12.302;2024-03-08T00:44:21;170.23;;;84.45;;
72209;SDS011;60113;48.762;12.302;2024-03-08T00:46:47;182.73;;;84.45;;
72209;SDS011;60113;48.762;12.302;2024-03-08T00:49:13;164.38;;;81.65;;
72209;SDS011;60113;48.762;12.302;2024-03-08T00:51:38;167.52;;;80.47;;
72209;SDS011;60113;48.762;12.302;2024-03-08T00:54:03;166.13;;;79.13;;
72209;SDS011;60113;48.762;12.302;2024-03-08T00:56:29;144.40;;;74.30;;
72209;SDS011;60113;48.762;12.302;2024-03-08T00:58:54;155.13;;;77.65;;
72209;SDS011;60113;48.762;12.302;2024-03-08T01:01:20;168.45;;;82.03;;
72209;SDS011;60113;48.762;12.302;2024-03-08T01:03:45;147.63;;;73.65;;
72209;SDS011;60113;48.762;12.302;2024-03-08T01:06:11;182.57;;;86.25;;
72209;SDS011;60113;48.762;12.302;2024-03-08T01:08:37;162.48;;;80.63;;
72209;SDS011;60113;48.762;12.302;2024-03-08T01:11:07;167.15;;;80.70;;
72209;SDS011;60113;48.762;12.302;2024-03-08T01:13:34;167.55;;;80.40;;
72209;SDS011;60113;48.762;12.302;2024-03-08T01:15:59;155.32;;;75.70;;
72209;SDS011;60113;48.762;12.302;2024-03-08T01:18:24;156.85;;;77.57;;
72209;SDS011;60113;48.762;12.302;2024-03-08T01:20:50;157.15;;;75.53;;
72209;SDS011;60113;48.762;12.302;2024-03-08T01:23:15;167.65;;;80.75;;
72209;SDS011;60113;48.762;12.302;2024-03-08T01:25:41;181.63;;;84.05;;
72209;SDS011;60113;48.762;12.302;2024-03-08T01:28:06;177.00;;;84.28;;
72209;SDS011;60113;48.762;12.302;2024-03-08T01:30:32;177.30;;;86.13;;
72209;SDS011;60113;48.762;12.302;2024-03-08T01:32:59;175.75;;;83.63;;
72209;SDS011;60113;48.762;12.302;2024-03-08T01:35:24;174.15;;;86.32;;
72209;SDS011;60113;48.762;12.302;2024-03-08T01:37:51;168.43;;;85.97;;
72209;SDS011;60113;48.762;12.302;2024-03-08T01:40:16;177.88;;;87.68;;
72209;SDS011;60113;48.762;12.302;2024-03-08T01:42:42;174.75;;;87.05;;
72209;SDS011;60113;48.762;12.302;2024-03-08T01:45:08;156.07;;;81.82;;
72209;SDS011;60113;48.762;12.302;2024-03-08T01:47:34;150.38;;;79.50;;
72209;SDS011;60113;48.762;12.302;2024-03-08T01:50:00;135.45;;;71.95;;
72209;SDS011;60113;48.762;12.302;2024-03-08T01:52:31;124.80;;;69.90;;
72209;SDS011;60113;48.762;12.302;2024-03-08T01:54:58;117.45;;;66.40;;
72209;SDS011;60113;48.762;12.302;2024-03-08T01:57:27;119.93;;;67.00;;
72209;SDS011;60113;48.762;12.302;2024-03-08T01:59:53;103.43;;;61.97;;
72209;SDS011;60113;48.762;12.302;2024-03-08T02:02:20;105.38;;;61.00;;
72209;SDS011;60113;48.762;12.302;2024-03-08T02:04:47;95.38;;;57.55;;
72209;SDS011;60113;48.762;12.302;2024-03-08T02:07:13;97.00;;;57.30;;
72209;SDS011;60113;48.762;12.302;2024-03-08T02:09:38;94.72;;;54.38;;
72209;SDS011;60113;48.762;12.302;2024-03-08T02:12:04;96.18;;;56.40;;
72209;SDS011;60113;48.762;12.302;2024-03-08T02:14:30;95.13;;;57.28;;
72209;SDS011;60113;48.762;12.302;2024-03-08T02:16:59;95.53;;;56.22;;
72209;SDS011;60113;48.762;12.302;2024-03-08T02:19:25;98.18;;;57.55;;
72209;SDS011;60113;48.762;12.302;2024-03-08T02:21:51;81.55;;;51.47;;
72209;SDS011;60113;48.762;12.302;2024-03-08T02:24:16;87.22;;;53.28;;
72209;SDS011;60113;48.762;12.302;2024-03-08T02:26:41;90.28;;;55.03;;
72209;SDS011;60113;48.762;12.302;2024-03-08T02:29:07;87.45;;;52.28;;
72209;SDS011;60113;48.762;12.302;2024-03-08T02:31:33;83.90;;;51.45;;
72209;SDS011;60113;48.762;12.302;2024-03-08T02:33:59;84.18;;;52.33;;
72209;SDS011;60113;48.762;12.302;2024-03-08T02:36:24;73.85;;;46.55;;
72209;SDS011;60113;48.762;12.302;2024-03-08T02:38:50;70.18;;;45.13;;
72209;SDS011;60113;48.762;12.302;2024-03-08T02:41:15;73.90;;;46.97;;
72209;SDS011;60113;48.762;12.302;2024-03-08T02:43:40;68.22;;;46.35;;
72209;SDS011;60113;48.762;12.302;2024-03-08T02:46:06;64.78;;;43.42;;
72209;SDS011;60113;48.762;12.302;2024-03-08T02:48:32;71.22;;;44.63;;
72209;SDS011;60113;48.762;12.302;2024-03-08T02:50:58;65.97;;;43.95;;
72209;SDS011;60113;48.762;12.302;2024-03-08T02:53:23;67.00;;;43.50;;
72209;SDS011;60113;48.762;12.302;2024-03-08T02:55:49;64.18;;;43.42;;
72209;SDS011;60113;48.762;12.302;2024-03-08T02:58:15;64.20;;;42.42;;
72209;SDS011;60113;48.762;12.302;2024-03-08T03:00:40;61.33;;;41.42;;
72209;SDS011;60113;48.762;12.302;2024-03-08T03:03:06;68.65;;;42.60;;
72209;SDS011;60113;48.762;12.302;2024-03-08T03:05:32;59.38;;;41.72;;
72209;SDS011;60113;48.762;12.302;2024-03-08T03:07:58;60.15;;;41.60;;
72209;SDS011;60113;48.762;12.302;2024-03-08T03:10:24;63.85;;;41.70;;
72209;SDS011;60113;48.762;12.302;2024-03-08T03:12:50;60.03;;;41.58;;
72209;SDS011;60113;48.762;12.302;2024-03-08T03:15:17;58.95;;;40.70;;
72209;SDS011;60113;48.762;12.302;2024-03-08T03:17:49;65.13;;;41.65;;
72209;SDS011;60113;48.762;12.302;2024-03-08T03:20:18;62.97;;;39.63;;
72209;SDS011;60113;48.762;12.302;2024-03-08T03:22:52;67.00;;;42.67;;
72209;SDS011;60113;48.762;12.302;2024-03-08T03:25:18;68.47;;;42.78;;
72209;SDS011;60113;48.762;12.302;2024-03-08T03:27:49;69.28;;;43.65;;
72209;SDS011;60113;48.762;12.302;2024-03-08T03:30:14;70.10;;;44.03;;
72209;SDS011;60113;48.762;12.302;2024-03-08T03:32:47;82.13;;;47.45;;
72209;SDS011;60113;48.762;12.302;2024-03-08T03:35:13;71.57;;;45.40;;
72209;SDS011;60113;48.762;12.302;2024-03-08T03:37:42;75.55;;;46.05;;
72209;SDS011;60113;48.762;12.302;2024-03-08T03:40:10;80.78;;;47.95;;
72209;SDS011;60113;48.762;12.302;2024-03-08T03:42:37;87.38;;;50.10;;
72209;SDS011;60113;48.762;12.302;2024-03-08T03:45:04;93.97;;;52.65;;
72209;SDS011;60113;48.762;12.302;2024-03-08T03:47:31;85.80;;;49.20;;
72209;SDS011;60113;48.762;12.302;2024-03-08T03:49:56;94.57;;;51.80;;
72209;SDS011;60113;48.762;12.302;2024-03-08T03:52:26;89.82;;;52.58;;
72209;SDS011;60113;48.762;12.302;2024-03-08T03:54:52;95.68;;;53.83;;
72209;SDS011;60113;48.762;12.302;2024-03-08T03:57:17;101.55;;;56.00;;
72209;SDS011;60113;48.762;12.302;2024-03-08T03:59:43;103.80;;;57.78;;
72209;SDS011;60113;48.762;12.302;2024-03-08T04:02:09;101.72;;;55.45;;
72209;SDS011;60113;48.762;12.302;2024-03-08T04:04:34;105.53;;;57.95;;
72209;SDS011;60113;48.762;12.302;2024-03-08T04:07:00;98.30;;;56.67;;
72209;SDS011;60113;48.762;12.302;2024-03-08T04:09:27;96.85;;;52.85;;
72209;SDS011;60113;48.762;12.302;2024-03-08T04:11:52;90.57;;;51.55;;
72209;SDS011;60113;48.762;12.302;2024-03-08T04:14:20;94.40;;;54.53;;
72209;SDS011;60113;48.762;12.302;2024-03-08T04:16:46;97.70;;;54.85;;
72209;SDS011;60113;48.762;12.302;2024-03-08T04:19:13;108.57;;;57.17;;
72209;SDS011;60113;48.762;12.302;2024-03-08T04:21:38;104.07;;;59.67;;
72209;SDS011;60113;48.762;12.302;2024-03-08T04:24:04;120.15;;;63.75;;
72209;SDS011;60113;48.762;12.302;2024-03-08T04:26:30;114.55;;;63.00;;
72209;SDS011;60113;48.762;12.302;2024-03-08T04:28:56;103.82;;;59.38;;
72209;SDS011;60113;48.762;12.302;2024-03-08T04:31:22;115.63;;;61.80;;
72209;SDS011;60113;48.762;12.302;2024-03-08T04:33:47;120.95;;;62.80;;
72209;SDS011;60113;48.762;12.302;2024-03-08T04:36:13;130.07;;;67.78;;
72209;SDS011;60113;48.762;12.302;2024-03-08T04:38:39;112.80;;;60.17;;
72209;SDS011;60113;48.762;12.302;2024-03-08T04:41:07;113.53;;;60.80;;
72209;SDS011;60113;48.762;12.302;2024-03-08T04:43:33;113.63;;;62.47;;
72209;SDS011;60113;48.762;12.302;2024-03-08T04:45:59;118.50;;;61.38;;
72209;SDS011;60113;48.762;12.302;2024-03-08T04:48:25;137.38;;;68.97;;
72209;SDS011;60113;48.762;12.302;2024-03-08T04:50:53;147.73;;;73.53;;
72209;SDS011;60113;48.762;12.302;2024-03-08T04:53:19;149.85;;;73.70;;
72209;SDS011;60113;48.762;12.302;2024-03-08T04:55:45;139.23;;;72.88;;
72209;SDS011;60113;48.762;12.302;2024-03-08T04:58:10;155.88;;;75.80;;
72209;SDS011;60113;48.762;12.302;2024-03-08T05:00:35;151.13;;;74.30;;
72209;SDS011;60113;48.762;12.302;2024-03-08T05:03:01;166.38;;;78.60;;
72209;SDS011;60113;48.762;12.302;2024-03-08T05:05:26;163.65;;;80.70;;
72209;SDS011;60113;48.762;12.302;2024-03-08T05:07:53;164.77;;;80.88;;
72209;SDS011;60113;48.762;12.302;2024-03-08T05:10:19;194.45;;;88.68;;
72209;SDS011;60113;48.762;12.302;2024-03-08T05:12:44;196.23;;;91.88;;
72209;SDS011;60113;48.762;12.302;2024-03-08T05:15:10;197.43;;;93.40;;
72209;SDS011;60113;48.762;12.302;2024-03-08T05:17:35;186.23;;;90.53;;
72209;SDS011;60113;48.762;12.302;2024-03-08T05:20:01;181.38;;;87.07;;
72209;SDS011;60113;48.762;12.302;2024-03-08T05:22:27;189.52;;;90.35;;
72209;SDS011;60113;48.762;12.302;2024-03-08T05:24:52;174.15;;;81.28;;
72209;SDS011;60113;48.762;12.302;2024-03-08T05:27:18;163.10;;;81.63;;
72209;SDS011;60113;48.762;12.302;2024-03-08T05:29:43;156.18;;;77.07;;
72209;SDS011;60113;48.762;12.302;2024-03-08T05:32:09;164.00;;;80.07;;
72209;SDS011;60113;48.762;12.302;2024-03-08T05:34:35;171.55;;;81.22;;
72209;SDS011;60113;48.762;12.302;2024-03-08T05:37:00;169.38;;;81.40;;
72209;SDS011;60113;48.762;12.302;2024-03-08T05:39:26;175.93;;;81.22;;
72209;SDS011;60113;48.762;12.302;2024-03-08T05:41:52;160.25;;;78.00;;
72209;SDS011;60113;48.762;12.302;2024-03-08T05:44:17;150.63;;;73.72;;
72209;SDS011;60113;48.762;12.302;2024-03-08T05:46:43;148.20;;;74.20;;
72209;SDS011;60113;48.762;12.302;2024-03-08T05:49:08;166.77;;;78.10;;
72209;SDS011;60113;48.762;12.302;2024-03-08T05:51:35;166.45;;;77.93;;
72209;SDS011;60113;48.762;12.302;2024-03-08T05:54:02;180.30;;;81.57;;
72209;SDS011;60113;48.762;12.302;2024-03-08T05:56:30;157.20;;;78.72;;
72209;SDS011;60113;48.762;12.302;2024-03-08T05:58:59;163.75;;;77.57;;
72209;SDS011;60113;48.762;12.302;2024-03-08T06:01:25;170.00;;;76.35;;
72209;SDS011;60113;48.762;12.302;2024-03-08T06:03:51;159.55;;;75.15;;
72209;SDS011;60113;48.762;12.302;2024-03-08T06:06:20;155.63;;;73.78;;
72209;SDS011;60113;48.762;12.302;2024-03-08T06:08:46;153.57;;;70.95;;
72209;SDS011;60113;48.762;12.302;2024-03-08T06:11:14;148.77;;;69.72;;
72209;SDS011;60113;48.762;12.302;2024-03-08T06:13:40;153.82;;;71.32;;
72209;SDS011;60113;48.762;12.302;2024-03-08T06:16:06;155.45;;;72.38;;
72209;SDS011;60113;48.762;12.302;2024-03-08T06:18:33;150.38;;;73.60;;
72209;SDS011;60113;48.762;12.302;2024-03-08T06:21:02;134.48;;;69.85;;
72209;SDS011;60113;48.762;12.302;2024-03-08T06:23:34;141.85;;;69.82;;
72209;SDS011;60113;48.762;12.302;2024-03-08T06:26:03;133.43;;;67.30;;
72209;SDS011;60113;48.762;12.302;2024-03-08T06:28:29;134.20;;;68.55;;
72209;SDS011;60113;48.762;12.302;2024-03-08T06:30:55;132.55;;;69.93;;
72209;SDS011;60113;48.762;12.302;2024-03-08T06:33:21;115.85;;;64.53;;
72209;SDS011;60113;48.762;12.302;2024-03-08T06:35:46;116.22;;;66.82;;
72209;SDS011;60113;48.762;12.302;2024-03-08T06:38:11;113.95;;;63.97;;
72209;SDS011;60113;48.762;12.302;2024-03-08T06:40:37;128.27;;;69.35;;
72209;SDS011;60113;48.762;12.302;2024-03-08T06:43:03;131.05;;;67.90;;
72209;SDS011;60113;48.762;12.302;2024-03-08T06:45:31;145.82;;;74.07;;
72209;SDS011;60113;48.762;12.302;2024-03-08T06:47:56;142.10;;;73.72;;
72209;SDS011;60113;48.762;12.302;2024-03-08T06:50:22;140.20;;;72.97;;
72209;SDS011;60113;48.762;12.302;2024-03-08T06:52:47;123.45;;;67.25;;
72209;SDS011;60113;48.762;12.302;2024-03-08T06:55:17;109.10;;;62.85;;
72209;SDS011;60113;48.762;12.302;2024-03-08T06:57:43;104.20;;;61.10;;
72209;SDS011;60113;48.762;12.302;2024-03-08T07:00:08;98.70;;;58.38;;
72209;SDS011;60113;48.762;12.302;2024-03-08T07:02:43;91.97;;;53.90;;
72209;SDS011;60113;48.762;12.302;2024-03-08T07:05:11;85.07;;;51.70;;
72209;SDS011;60113;48.762;12.302;2024-03-08T07:07:36;78.35;;;49.20;;
72209;SDS011;60113;48.762;12.302;2024-03-08T07:10:02;80.75;;;48.05;;
72209;SDS011;60113;48.762;12.302;2024-03-08T07:12:28;73.93;;;46.28;;
72209;SDS011;60113;48.762;12.302;2024-03-08T07:14:53;69.70;;;45.15;;
72209;SDS011;60113;48.762;12.302;2024-03-08T07:17:19;69.63;;;43.60;;
72209;SDS011;60113;48.762;12.302;2024-03-08T07:19:45;69.32;;;42.42;;
72209;SDS011;60113;48.762;12.302;2024-03-08T07:22:10;68.43;;;43.03;;
72209;SDS011;60113;48.762;12.302;2024-03-08T07:24:36;66.10;;;42.25;;
72209;SDS011;60113;48.762;12.302;2024-03-08T07:27:02;60.90;;;40.38;;
72209;SDS011;60113;48.762;12.302;2024-03-08T07:29:30;62.08;;;40.05;;
72209;SDS011;60113;48.762;12.302;2024-03-08T07:31:56;63.30;;;39.22;;
72209;SDS011;60113;48.762;12.302;2024-03-08T07:34:28;59.70;;;37.88;;
72209;SDS011;60113;48.762;12.302;2024-03-08T07:36:57;53.95;;;36.08;;
72209;SDS011;60113;48.762;12.302;2024-03-08T07:39:22;57.17;;;36.40;;
72209;SDS011;60113;48.762;12.302;2024-03-08T07:41:49;53.70;;;35.53;;
72209;SDS011;60113;48.762;12.302;2024-03-08T07:44:17;56.17;;;35.05;;
72209;SDS011;60113;48.762;12.302;2024-03-08T07:46:43;51.22;;;33.92;;
72209;SDS011;60113;48.762;12.302;2024-03-08T07:49:09;52.15;;;33.65;;
72209;SDS011;60113;48.762;12.302;2024-03-08T07:51:36;50.20;;;32.67;;
72209;SDS011;60113;48.762;12.302;2024-03-08T07:54:02;51.72;;;32.03;;
72209;SDS011;60113;48.762;12.302;2024-03-08T07:56:29;48.75;;;30.75;;
72209;SDS011;60113;48.762;12.302;2024-03-08T07:58:55;48.92;;;31.65;;
72209;SDS011;60113;48.762;12.302;2024-03-08T08:01:21;47.20;;;29.05;;
72209;SDS011;60113;48.762;12.302;2024-03-08T08:03:46;43.97;;;27.02;;
72209;SDS011;60113;48.762;12.302;2024-03-08T08:06:14;42.88;;;29.00;;
72209;SDS011;60113;48.762;12.302;2024-03-08T08:08:43;45.53;;;29.25;;
72209;SDS011;60113;48.762;12.302;2024-03-08T08:11:09;43.80;;;28.95;;
72209;SDS011;60113;48.762;12.302;2024-03-08T08:13:35;40.03;;;27.75;;
72209;SDS011;60113;48.762;12.302;2024-03-08T08:16:01;46.67;;;28.98;;
72209;SDS011;60113;48.762;12.302;2024-03-08T08:18:27;41.63;;;28.35;;
72209;SDS011;60113;48.762;12.302;2024-03-08T08:20:54;40.72;;;27.35;;
72209;SDS011;60113;48.762;12.302;2024-03-08T08:23:23;42.08;;;27.13;;
72209;SDS011;60113;48.762;12.302;2024-03-08T08:25:48;57.35;;;27.95;;
72209;SDS011;60113;48.762;12.302;2024-03-08T08:28:15;39.15;;;27.02;;
72209;SDS011;60113;48.762;12.302;2024-03-08T08:30:46;38.88;;;27.30;;
72209;SDS011;60113;48.762;12.302;2024-03-08T08:33:14;40.55;;;26.50;;
72209;SDS011;60113;48.762;12.302;2024-03-08T08:35:40;37.85;;;26.02;;
72209;SDS011;60113;48.762;12.302;2024-03-08T08:38:05;65.85;;;26.77;;
72209;SDS011;60113;48.762;12.302;2024-03-08T08:40:32;39.15;;;25.55;;
72209;SDS011;60113;48.762;12.302;2024-03-08T08:43:02;50.28;;;26.02;;
72209;SDS011;60113;48.762;12.302;2024-03-08T08:45:29;48.55;;;25.45;;
72209;SDS011;60113;48.762;12.302;2024-03-08T08:47:58;40.45;;;23.58;;
72209;SDS011;60113;48.762;12.302;2024-03-08T08:50:25;35.15;;;24.00;;
72209;SDS011;60113;48.762;12.302;2024-03-08T08:52:51;35.25;;;24.25;;
72209;SDS011;60113;48.762;12.302;2024-03-08T08:55:18;41.70;;;23.10;;
72209;SDS011;60113;48.762;12.302;2024-03-08T08:57:46;34.30;;;22.13;;
72209;SDS011;60113;48.762;12.302;2024-03-08T09:00:12;32.15;;;22.48;;
72209;SDS011;60113;48.762;12.302;2024-03-08T09:02:40;34.50;;;22.42;;
72209;SDS011;60113;48.762;12.302;2024-03-08T09:05:06;32.35;;;22.05;;
72209;SDS011;60113;48.762;12.302;2024-03-08T09:07:33;33.83;;;23.23;;
72209;SDS011;60113;48.762;12.302;2024-03-08T09:09:59;33.13;;;23.05;;
72209;SDS011;60113;48.762;12.302;2024-03-08T09:12:28;32.38;;;20.77;;
72209;SDS011;60113;48.762;12.302;2024-03-08T09:14:53;32.80;;;21.88;;
72209;SDS011;60113;48.762;12.302;2024-03-08T09:17:19;28.40;;;20.70;;
72209;SDS011;60113;48.762;12.302;2024-03-08T09:19:48;32.75;;;21.88;;
72209;SDS011;60113;48.762;12.302;2024-03-08T09:22:14;30.13;;;20.85;;
72209;SDS011;60113;48.762;12.302;2024-03-08T09:24:39;30.60;;;20.48;;
72209;SDS011;60113;48.762;12.302;2024-03-08T09:27:05;28.38;;;19.77;;
72209;SDS011;60113;48.762;12.302;2024-03-08T09:29:30;34.25;;;21.27;;
72209;SDS011;60113;48.762;12.302;2024-03-08T09:31:56;34.30;;;20.42;;
72209;SDS011;60113;48.762;12.302;2024-03-08T09:34:22;30.42;;;19.70;;
72209;SDS011;60113;48.762;12.302;2024-03-08T09:36:48;29.85;;;18.85;;
72209;SDS011;60113;48.762;12.302;2024-03-08T09:39:15;29.33;;;18.33;;
72209;SDS011;60113;48.762;12.302;2024-03-08T09:41:45;26.98;;;18.20;;
72209;SDS011;60113;48.762;12.302;2024-03-08T09:44:17;26.23;;;18.15;;
72209;SDS011;60113;48.762;12.302;2024-03-08T09:46:42;27.13;;;19.23;;
72209;SDS011;60113;48.762;12.302;2024-03-08T09:49:11;29.13;;;19.10;;
72209;SDS011;60113;48.762;12.302;2024-03-08T09:51:36;26.42;;;17.92;;
72209;SDS011;60113;48.762;12.302;2024-03-08T09:54:05;26.00;;;18.42;;
72209;SDS011;60113;48.762;12.302;2024-03-08T09:56:37;28.23;;;20.02;;
72209;SDS011;60113;48.762;12.302;2024-03-08T09:59:05;32.92;;;19.35;;
72209;SDS011;60113;48.762;12.302;2024-03-08T10:01:31;29.92;;;18.45;;
72209;SDS011;60113;48.762;12.302;2024-03-08T10:03:57;27.25;;;18.05;;
72209;SDS011;60113;48.762;12.302;2024-03-08T10:06:23;24.38;;;16.67;;
72209;SDS011;60113;48.762;12.302;2024-03-08T10:08:49;24.60;;;16.13;;
72209;SDS011;60113;48.762;12.302;2024-03-08T10:11:16;27.58;;;19.35;;
72209;SDS011;60113;48.762;12.302;2024-03-08T10:13:42;25.27;;;17.05;;
72209;SDS011;60113;48.762;12.302;2024-03-08T10:16:11;34.97;;;18.42;;
72209;SDS011;60113;48.762;12.302;2024-03-08T10:18:37;25.42;;;17.25;;
72209;SDS011;60113;48.762;12.302;2024-03-08T10:21:03;23.35;;;16.10;;
72209;SDS011;60113;48.762;12.302;2024-03-08T10:23:34;22.58;;;16.13;;
72209;SDS011;60113;48.762;12.302;2024-03-08T10:26:13;23.33;;;16.98;;
72209;SDS011;60113;48.762;12.302;2024-03-08T10:28:40;24.52;;;15.95;;
72209;SDS011;60113;48.762;12.302;2024-03-08T10:31:16;21.38;;;14.95;;
72209;SDS011;60113;48.762;12.302;2024-03-08T10:33:42;22.13;;;15.07;;
72209;SDS011;60113;48.762;12.302;2024-03-08T10:36:08;22.92;;;16.20;;
72209;SDS011;60113;48.762;12.302;2024-03-08T10:38:35;22.17;;;14.90;;
72209;SDS011;60113;48.762;12.302;2024-03-08T10:41:01;23.40;;;16.15;;
72209;SDS011;60113;48.762;12.302;2024-03-08T10:43:31;22.20;;;15.48;;
72209;SDS011;60113;48.762;12.302;2024-03-08T10:49:08;34.50;;;15.85;;
72209;SDS011;60113;48.762;12.302;2024-03-08T10:51:40;19.27;;;12.68;;
72209;SDS011;60113;48.762;12.302;2024-03-08T10:54:07;20.70;;;14.50;;
72209;SDS011;60113;48.762;12.302;2024-03-08T10:56:35;19.95;;;13.55;;
72209;SDS011;60113;48.762;12.302;2024-03-08T10:59:01;18.48;;;13.23;;
72209;SDS011;60113;48.762;12.302;2024-03-08T11:01:27;19.88;;;12.73;;
72209;SDS011;60113;48.762;12.302;2024-03-08T11:03:52;18.58;;;13.82;;
72209;SDS011;60113;48.762;12.302;2024-03-08T11:06:22;20.90;;;13.95;;
72209;SDS011;60113;48.762;12.302;2024-03-08T11:08:55;19.90;;;13.75;;
72209;SDS011;60113;48.762;12.302;2024-03-08T11:13:59;19.60;;;12.98;;
72209;SDS011;60113;48.762;12.302;2024-03-08T11:18:58;19.63;;;12.95;;
72209;SDS011;60113;48.762;12.302;2024-03-08T11:21:29;20.30;;;13.73;;
72209;SDS011;60113;48.762;12.302;2024-03-08T11:24:10;17.27;;;12.55;;
72209;SDS011;60113;48.762;12.302;2024-03-08T11:26:39;16.48;;;11.95;;
72209;SDS011;60113;48.762;12.302;2024-03-08T11:32:03;16.52;;;12.82;;
72209;SDS011;60113;48.762;12.302;2024-03-08T11:34:30;16.55;;;12.32;;
72209;SDS011;60113;48.762;12.302;2024-03-08T11:36:55;17.13;;;12.73;;
72209;SDS011;60113;48.762;12.302;2024-03-08T11:39:21;18.38;;;13.57;;
72209;SDS011;60113;48.762;12.302;2024-03-08T11:41:49;18.15;;;13.65;;
72209;SDS011;60113;48.762;12.302;2024-03-08T11:44:14;17.60;;;13.90;;
72209;SDS011;60113;48.762;12.302;2024-03-08T11:46:42;19.15;;;13.13;;
72209;SDS011;60113;48.762;12.302;2024-03-08T11:49:12;18.75;;;13.60;;
72209;SDS011;60113;48.762;12.302;2024-03-08T11:51:38;21.38;;;13.23;;
72209;SDS011;60113;48.762;12.302;2024-03-08T11:54:03;18.55;;;12.93;;
72209;SDS011;60113;48.762;12.302;2024-03-08T11:56:31;15.18;;;11.00;;
72209;SDS011;60113;48.762;12.302;2024-03-08T11:58:57;15.73;;;12.30;;
72209;SDS011;60113;48.762;12.302;2024-03-08T12:01:23;12.75;;;10.25;;
72209;SDS011;60113;48.762;12.302;2024-03-08T12:03:55;18.08;;;12.27;;
72209;SDS011;60113;48.762;12.302;2024-03-08T12:06:25;15.07;;;11.57;;
72209;SDS011;60113;48.762;12.302;2024-03-08T12:08:52;17.00;;;13.10;;
72209;SDS011;60113;48.762;12.302;2024-03-08T12:11:19;16.35;;;12.70;;
72209;SDS011;60113;48.762;12.302;2024-03-08T12:13:48;25.35;;;13.38;;
72209;SDS011;60113;48.762;12.302;2024-03-08T12:16:16;20.30;;;12.80;;
72209;SDS011;60113;48.762;12.302;2024-03-08T12:18:49;17.83;;;12.70;;
72209;SDS011;60113;48.762;12.302;2024-03-08T12:21:17;16.80;;;12.40;;
72209;SDS011;60113;48.762;12.302;2024-03-08T12:23:46;12.68;;;8.80;;
72209;SDS011;60113;48.762;12.302;2024-03-08T12:26:18;14.02;;;9.95;;
72209;SDS011;60113;48.762;12.302;2024-03-08T12:28:51;15.15;;;10.55;;
72209;SDS011;60113;48.762;12.302;2024-03-08T12:31:17;17.60;;;9.88;;
72209;SDS011;60113;48.762;12.302;2024-03-08T12:36:18;15.00;;;10.10;;
72209;SDS011;60113;48.762;12.302;2024-03-08T12:38:47;12.50;;;9.43;;
72209;SDS011;60113;48.762;12.302;2024-03-08T12:41:14;13.13;;;9.77;;
72209;SDS011;60113;48.762;12.302;2024-03-08T12:43:43;11.68;;;9.13;;
72209;SDS011;60113;48.762;12.302;2024-03-08T12:46:19;13.23;;;9.05;;
72209;SDS011;60113;48.762;12.302;2024-03-08T12:48:46;12.30;;;8.90;;
72209;SDS011;60113;48.762;12.302;2024-03-08T12:51:15;11.00;;;8.00;;
72209;SDS011;60113;48.762;12.302;2024-03-08T12:53:42;10.60;;;8.27;;
72209;SDS011;60113;48.762;12.302;2024-03-08T12:56:11;14.18;;;8.27;;
72209;SDS011;60113;48.762;12.302;2024-03-08T12:58:37;11.40;;;8.50;;
72209;SDS011;60113;48.762;12.302;2024-03-08T13:01:04;10.95;;;8.25;;
72209;SDS011;60113;48.762;12.302;2024-03-08T13:03:35;12.63;;;8.38;;
72209;SDS011;60113;48.762;12.302;2024-03-08T13:06:02;11.40;;;8.23;;
72209;SDS011;60113;48.762;12.302;2024-03-08T13:08:30;9.82;;;6.88;;
72209;SDS011;60113;48.762;12.302;2024-03-08T13:10:56;10.15;;;7.32;;
72209;SDS011;60113;48.762;12.302;2024-03-08T13:13:21;13.82;;;8.68;;
72209;SDS011;60113;48.762;12.302;2024-03-08T13:15:47;9.23;;;7.20;;
72209;SDS011;60113;48.762;12.302;2024-03-08T13:18:14;14.27;;;7.88;;
72209;SDS011;60113;48.762;12.302;2024-03-08T13:20:41;12.38;;;7.47;;
72209;SDS011;60113;48.762;12.302;2024-03-08T13:23:09;13.35;;;8.07;;
72209;SDS011;60113;48.762;12.302;2024-03-08T13:25:34;12.57;;;7.65;;
72209;SDS011;60113;48.762;12.302;2024-03-08T13:27:59;9.38;;;7.13;;
72209;SDS011;60113;48.762;12.302;2024-03-08T13:30:26;10.18;;;6.47;;
72209;SDS011;60113;48.762;12.302;2024-03-08T13:32:52;9.23;;;7.20;;
72209;SDS011;60113;48.762;12.302;2024-03-08T13:35:18;11.70;;;6.50;;
72209;SDS011;60113;48.762;12.302;2024-03-08T13:37:49;8.30;;;5.55;;
72209;SDS011;60113;48.762;12.302;2024-03-08T13:40:17;11.77;;;6.95;;
72209;SDS011;60113;48.762;12.302;2024-03-08T13:42:46;8.15;;;6.22;;
72209;SDS011;60113;48.762;12.302;2024-03-08T13:45:12;10.18;;;6.38;;
72209;SDS011;60113;48.762;12.302;2024-03-08T13:47:41;7.15;;;5.82;;
72209;SDS011;60113;48.762;12.302;2024-03-08T13:50:07;8.82;;;5.90;;
72209;SDS011;60113;48.762;12.302;2024-03-08T13:52:39;10.77;;;6.30;;
72209;SDS011;60113;48.762;12.302;2024-03-08T13:55:05;8.15;;;6.70;;
72209;SDS011;60113;48.762;12.302;2024-03-08T13:57:32;18.42;;;6.97;;
72209;SDS011;60113;48.762;12.302;2024-03-08T13:59:58;9.45;;;6.90;;
72209;SDS011;60113;48.762;12.302;2024-03-08T14:02:23;11.02;;;6.88;;
72209;SDS011;60113;48.762;12.302;2024-03-08T14:04:56;6.45;;;4.82;;
72209;SDS011;60113;48.762;12.302;2024-03-08T14:07:22;10.43;;;5.38;;
72209;SDS011;60113;48.762;12.302;2024-03-08T14:09:48;10.52;;;6.20;;
72209;SDS011;60113;48.762;12.302;2024-03-08T14:12:15;5.88;;;4.95;;
72209;SDS011;60113;48.762;12.302;2024-03-08T14:14:40;7.65;;;5.18;;
72209;SDS011;60113;48.762;12.302;2024-03-08T14:17:07;6.15;;;5.28;;